KLM235 EHAM-VHHX
Flight info
| Callsign | KLM235 |
|---|---|
| Flight time | N/A |
| Altitude | 31000 |
| Route | EDUPO Z739 MISGO DCT TIVUN DCT ESAMA DCT OSBIT DCT TENLO DCT LAMSI DCT STEIN DCT TEGRI/N0494F330 DCT DINRO DCT UDROS UM859 KARDE UN644 ROLIN N644 LAGAS/N0501F350 M747 SUBUT T923 ERLEV M11 RODAR A909 LEMOD N644 DI M875 JHANG/N0501F370 M875 IGONA J30 BBN W44 PPT A201 LSO A599 LINSO/K0930S1130 A599 GMA/K0926S1190 A599 POU |
| Aircraft | B744/H-SDE3FGHIM1M2RWXY/LB1 |
Departure
| Time | 2026-05-04 22:55 |
|---|---|
| Airport | Amsterdam Airport Schiphol (EHAM) |
Arrival
| Time | N/A |
|---|---|
| Airport | Hong Kong International Airport Kai Tak (VHHX) |
| Time | Latitude | Longitude | Altitude | Speed | Heading |
|---|---|---|---|---|---|
| 2026-05-04 22:38 | 52.31399 | 4.77033 | 0 ft | 0 kts | 303° |
| 2026-05-04 22:40 | 52.31394 | 4.77046 | 0 ft | 2 kts | 303° |
| 2026-05-04 22:41 | 52.31386 | 4.77066 | 0 ft | 2 kts | 303° |
| 2026-05-04 22:41 | 52.31378 | 4.77088 | 0 ft | 2 kts | 303° |
| 2026-05-04 22:41 | 52.31370 | 4.77108 | 0 ft | 2 kts | 303° |
| 2026-05-04 22:41 | 52.31360 | 4.77127 | 0 ft | 2 kts | 329° |
| 2026-05-04 22:42 | 52.31346 | 4.77136 | 0 ft | 2 kts | 354° |
| 2026-05-04 22:42 | 52.31331 | 4.77135 | 0 ft | 2 kts | 17° |
| 2026-05-04 22:42 | 52.31321 | 4.77131 | 0 ft | 0 kts | 31° |
| 2026-05-04 22:42 | 52.31316 | 4.77125 | 0 ft | 0 kts | 32° |
| 2026-05-04 22:45 | 52.31321 | 4.77130 | 0 ft | 2 kts | 32° |
| 2026-05-04 22:45 | 52.31385 | 4.77177 | 0 ft | 7 kts | 14° |
| 2026-05-04 22:45 | 52.31449 | 4.77192 | 0 ft | 10 kts | 5° |
| 2026-05-04 22:46 | 52.31531 | 4.77189 | 0 ft | 12 kts | 339° |
| 2026-05-04 22:46 | 52.31570 | 4.77066 | 0 ft | 13 kts | 269° |
| 2026-05-04 22:46 | 52.31564 | 4.76899 | 0 ft | 16 kts | 266° |
| 2026-05-04 22:46 | 52.31557 | 4.76701 | 0 ft | 18 kts | 267° |
| 2026-05-04 22:47 | 52.31549 | 4.76476 | 0 ft | 20 kts | 266° |
| 2026-05-04 22:47 | 52.31540 | 4.76236 | 0 ft | 20 kts | 265° |
| 2026-05-04 22:47 | 52.31531 | 4.76001 | 0 ft | 20 kts | 267° |
| 2026-05-04 22:47 | 52.31524 | 4.75765 | 0 ft | 20 kts | 268° |
| 2026-05-04 22:48 | 52.31518 | 4.75529 | 0 ft | 20 kts | 266° |
| 2026-05-04 22:48 | 52.31511 | 4.75296 | 0 ft | 20 kts | 268° |
| 2026-05-04 22:48 | 52.31503 | 4.75060 | 0 ft | 20 kts | 264° |
| 2026-05-04 22:48 | 52.31491 | 4.74833 | 0 ft | 20 kts | 266° |
| 2026-05-04 22:49 | 52.31515 | 4.74686 | 0 ft | 8 kts | 335° |
| 2026-05-04 22:49 | 52.31576 | 4.74651 | 0 ft | 8 kts | 360° |
| 2026-05-04 22:49 | 52.31643 | 4.74657 | 0 ft | 5 kts | 26° |
| 2026-05-04 22:49 | 52.31662 | 4.74711 | 0 ft | 5 kts | 87° |
| 2026-05-04 22:50 | 52.31663 | 4.74740 | 0 ft | 0 kts | 86° |
| 2026-05-04 22:50 | 52.31663 | 4.74741 | 0 ft | 0 kts | 86° |
| 2026-05-04 22:50 | 52.31663 | 4.74742 | 0 ft | 0 kts | 86° |
| 2026-05-04 22:50 | 52.31663 | 4.74744 | 0 ft | 0 kts | 86° |
| 2026-05-04 22:51 | 52.31663 | 4.74745 | 0 ft | 0 kts | 86° |
| 2026-05-04 22:51 | 52.31663 | 4.74746 | 0 ft | 0 kts | 86° |
| 2026-05-04 22:51 | 52.31663 | 4.74748 | 0 ft | 0 kts | 86° |
| 2026-05-04 22:51 | 52.31663 | 4.74749 | 0 ft | 0 kts | 86° |
| 2026-05-04 22:52 | 52.31663 | 4.74750 | 0 ft | 0 kts | 86° |
| 2026-05-04 22:52 | 52.31663 | 4.74751 | 0 ft | 0 kts | 86° |
| 2026-05-04 22:52 | 52.31663 | 4.74753 | 0 ft | 0 kts | 86° |
| 2026-05-04 22:52 | 52.31663 | 4.74754 | 0 ft | 0 kts | 86° |
| 2026-05-04 22:53 | 52.31663 | 4.74755 | 0 ft | 0 kts | 86° |
| 2026-05-04 22:53 | 52.31679 | 4.75074 | 1 ft | 66 kts | 86° |
| 2026-05-04 22:53 | 52.31715 | 4.76205 | 1 ft | 131 kts | 85° |
| 2026-05-04 22:53 | 52.31765 | 4.77856 | 38 ft | 144 kts | 88° |
| 2026-05-04 22:54 | 52.31763 | 4.78653 | -4 ft | 27 kts | 109° |
| 2026-05-04 22:54 | 52.31666 | 4.74730 | 0 ft | 0 kts | 86° |
| 2026-05-04 22:54 | 52.31667 | 4.74766 | 0 ft | 23 kts | 86° |
| 2026-05-04 22:55 | 52.31694 | 4.75479 | 1 ft | 101 kts | 86° |
| 2026-05-04 22:55 | 52.31740 | 4.77013 | 5 ft | 164 kts | 85° |
| 2026-05-04 22:55 | 52.31789 | 4.79002 | 544 ft | 177 kts | 85° |
| 2026-05-04 22:55 | 52.31829 | 4.81077 | 835 ft | 213 kts | 90° |
| 2026-05-04 22:56 | 52.31609 | 4.83650 | 1135 ft | 236 kts | 102° |
| 2026-05-04 22:56 | 52.31100 | 4.86123 | 2052 ft | 233 kts | 110° |
| 2026-05-04 22:56 | 52.30371 | 4.88608 | 2538 ft | 248 kts | 120° |
| 2026-05-04 22:56 | 52.29210 | 4.90749 | 3063 ft | 259 kts | 142° |
| 2026-05-04 22:57 | 52.27655 | 4.92220 | 3662 ft | 265 kts | 158° |
| 2026-05-04 22:57 | 52.25860 | 4.92930 | 4249 ft | 270 kts | 175° |
| 2026-05-04 22:57 | 52.23974 | 4.92767 | 4802 ft | 274 kts | 194° |
| 2026-05-04 22:57 | 52.22203 | 4.91720 | 5358 ft | 274 kts | 212° |
| 2026-05-04 22:58 | 52.20725 | 4.89889 | 5949 ft | 269 kts | 230° |
| 2026-05-04 22:58 | 52.19657 | 4.87411 | 6474 ft | 267 kts | 248° |
| 2026-05-04 22:58 | 52.19143 | 4.84553 | 7095 ft | 260 kts | 266° |
| 2026-05-04 22:58 | 52.19224 | 4.81672 | 7612 ft | 257 kts | 285° |
| 2026-05-04 22:59 | 52.19896 | 4.78989 | 8080 ft | 257 kts | 303° |
| 2026-05-04 22:59 | 52.21088 | 4.76846 | 8539 ft | 260 kts | 321° |
| 2026-05-04 22:59 | 52.22681 | 4.75466 | 8959 ft | 266 kts | 340° |
| 2026-05-04 22:59 | 52.24506 | 4.75025 | 9348 ft | 274 kts | 358° |
| 2026-05-04 23:00 | 52.26270 | 4.75541 | 9692 ft | 282 kts | 16° |
| 2026-05-04 23:00 | 52.28026 | 4.77071 | 9960 ft | 295 kts | 35° |
| 2026-05-04 23:00 | 52.29452 | 4.79512 | 10275 ft | 304 kts | 53° |
| 2026-05-04 23:00 | 52.30382 | 4.82655 | 10594 ft | 311 kts | 73° |
| 2026-05-04 23:01 | 52.30692 | 4.86127 | 10879 ft | 316 kts | 92° |
| 2026-05-04 23:01 | 52.30347 | 4.89705 | 11122 ft | 320 kts | 109° |
| 2026-05-04 23:01 | 52.29647 | 4.93143 | 11314 ft | 328 kts | 110° |
| 2026-05-04 23:01 | 52.28982 | 4.96789 | 11436 ft | 342 kts | 108° |
| 2026-05-04 23:02 | 52.28326 | 5.00601 | 11971 ft | 349 kts | 107° |
| 2026-05-04 23:02 | 52.27748 | 5.04303 | 12628 ft | 352 kts | 105° |
| 2026-05-04 23:02 | 52.27148 | 5.08225 | 13254 ft | 356 kts | 107° |
| 2026-05-04 23:02 | 52.26535 | 5.12128 | 13855 ft | 361 kts | 107° |
| 2026-05-04 23:03 | 52.26142 | 5.14648 | 14226 ft | 363 kts | 107° |
| 2026-05-04 23:03 | 52.25510 | 5.18667 | 14813 ft | 368 kts | 107° |
| 2026-05-04 23:03 | 52.24876 | 5.22686 | 15387 ft | 372 kts | 108° |
| 2026-05-04 23:03 | 52.23988 | 5.26619 | 15879 ft | 372 kts | 122° |
| 2026-05-04 23:04 | 52.22572 | 5.30082 | 16432 ft | 370 kts | 131° |
| 2026-05-04 23:04 | 52.21057 | 5.33454 | 16974 ft | 375 kts | 130° |
| 2026-05-04 23:04 | 52.19544 | 5.36921 | 17519 ft | 379 kts | 131° |
| 2026-05-04 23:04 | 52.17994 | 5.40428 | 18078 ft | 384 kts | 131° |
| 2026-05-04 23:05 | 52.16430 | 5.43985 | 18637 ft | 388 kts | 131° |
| 2026-05-04 23:05 | 52.14841 | 5.47593 | 19186 ft | 392 kts | 131° |
| 2026-05-04 23:05 | 52.13256 | 5.51214 | 19716 ft | 397 kts | 131° |
| 2026-05-04 23:05 | 52.11657 | 5.54895 | 20257 ft | 402 kts | 131° |
| 2026-05-04 23:06 | 52.10062 | 5.58630 | 20790 ft | 406 kts | 131° |
| 2026-05-04 23:06 | 52.08371 | 5.62380 | 21311 ft | 409 kts | 133° |
| 2026-05-04 23:06 | 52.06760 | 5.66044 | 21813 ft | 415 kts | 132° |
| 2026-05-04 23:06 | 52.05086 | 5.69697 | 22306 ft | 413 kts | 139° |
| 2026-05-04 23:07 | 52.03162 | 5.73130 | 22806 ft | 416 kts | 140° |
| 2026-05-04 23:07 | 52.01242 | 5.76645 | 23308 ft | 422 kts | 139° |
| 2026-05-04 23:07 | 51.99314 | 5.80190 | 23833 ft | 426 kts | 140° |
| 2026-05-04 23:07 | 51.97356 | 5.83886 | 24367 ft | 432 kts | 138° |
| 2026-05-04 23:08 | 51.95410 | 5.87522 | 24828 ft | 434 kts | 141° |
| 2026-05-04 23:08 | 51.93375 | 5.91182 | 25329 ft | 439 kts | 140° |
| 2026-05-04 23:08 | 51.91357 | 5.94909 | 25815 ft | 443 kts | 140° |
| 2026-05-04 23:08 | 51.89471 | 5.98371 | 26225 ft | 447 kts | 140° |
| 2026-05-04 23:09 | 51.87596 | 6.01879 | 26671 ft | 451 kts | 139° |